Senatobia, MS

05:12 AM CDT ye 22 September, 2014 (GMT -0500)
BHQ | Change Station
CLOSE
Current Station
Personal Weather Stations
Location: Como, MS
Elevation: 367 ft
Nearby Weather Stations

Elev 367 ft 34.52 °N, 89.94 °W | Updated 11 minutes ago

Klara
Klara
60.6 °F
Feels Like 60.6 °F
N
2.2
Vento Variema Vento from Nordo

Hodie
High -- | Low -- °F
--% Chance of Precip.
Yesterday
High -- | Low -- °F
Precip. -- in
6:48 AM 6:57 PM
Waning Crescent, 3% visible
Presuro 30.15 in
Videbleso 10.0 milii
Clouds Klara
Rosifopunto 54 °F
Humideso 80%
Rainfall 0.00 in
Snow Depth Not available.
UV 0 out of 12
Pollen 8.30 out of 12
Air Quality Not available.
Flu Activity Not available.
METAR KUTA 220955Z AUTO 36005KT 10SM CLR 13/12 A3015 RMK AO2

More Conditions Fewer Conditions

Presuro 30.15 in
Videbleso 10.0 milii
Clouds Klara
Rosifopunto 54 °F
Humideso 80%
Rainfall 0.00 in
Snow Depth Not available.
UV 0 out of 12
Pollen 8.30 out of 12
Air Quality Not available.
Flu Activity Not available.
METAR KUTA 220955Z AUTO 36005KT 10SM CLR 13/12 A3015 RMK AO2

More Conditions Fewer Conditions

10-Day Weather Forecast

Almanac

Astronomy

Sep. 22, 2014 Rise Set
Actual Time 6:48 AM CDT 6:57 PM CDT
Civil Twilight 6:23 AM CDT 7:22 PM CDT
Nautical Twilight 5:54 AM CDT 7:51 PM CDT
Astronomical Twilight 5:24 AM CDT 8:21 PM CDT
Moon 5:19 AM CDT 6:03 PM CDT
Length Of Visible Light 12h 58m
Length of Day
12h 08m
Tomorrow will be 2m 8s shorter.
Waning Crescent, 3% of the Moon is Illuminated
Hodie
Waning Crescent
Sep 24
New
Oct 1
First Quarter
Oct 8
Full
Oct 15
Last Quarter

Today's Extremes

State Highs State Lows

Community

WunderPhotos

Upload Photos

1,755,404 photos uploaded!

Nearby

Snow Depth

Station Depth Elevation
No new snow has been reported.

Earthquake Activity

City Distance Mag. Time & Date
No recent earthquake activity has been reported nearby.
Minimum magnitude displayed is 2.5.

Coastal Water Temperatures

Loko Temperaturo
No Stations Reporting

Nearby Weather Stations